LFRU/MXN METAR and TAF weather

Enter ICAO airport designator
Station Type Date Time Source
LFRU METAR 2022/12/04 11:30 UTC NOAA

LFRU 041130Z AUTO 09007KT 060V120 7000 OVC010 05/03 Q1011


Station Type Date Time Source
LFRU Decoded METAR 2022/12/04 11:30 UTC NOAA

Morlaix / Ploujean, France (LFRU) 48-36N 003-49W
Dec 04, 2022 - 06:30 AM EST / 2022.12.04 1130 UTC
Wind: from the E (090 degrees) at 8 MPH (7 KT) (direction variable):0
Visibility: 4 mile(s):0
Sky conditions: overcast
Temperature: 41 F (5 C)
Dew Point: 37 F (3 C)
Relative Humidity: 86%
Pressure (altimeter): 29.85 in. Hg (1011 hPa)
ob: LFRU 041130Z AUTO 09007KT 060V120 7000 OVC010 05/03 Q1011
cycle: 11

Station Type Date Time Source
LFRU TAF UTC NOAA

Error!

Example: see airport list